Time;durP1;ratioP1;P1;durP2;ratioP2;P2;SDS_P1;SDS_P2;PMS_P1;PMS_P2;Temp;Humidity;BMP_temperature;BMP_pressure;BME280_temperature;BME280_humidity;BME280_pressure;Samples;Min_cycle;Max_cycle;Signal;HPM_P1;HPM_P2
2023/07/17 00:00:03;;;;;;;2.85;1.40;;;23.70;99.90;;;;;;1905335;75;21176;-77
2023/07/17 00:02:54;;;;;;;3.85;1.55;;;23.80;99.90;;;;;;1885435;75;21164;-78
2023/07/17 00:05:46;;;;;;;3.70;1.62;;;23.80;99.90;;;;;;1880719;75;21143;-77
2023/07/17 00:08:37;;;;;;;2.02;1.40;;;23.80;99.90;;;;;;1874163;75;21110;-78
2023/07/17 00:11:28;;;;;;;3.17;1.60;;;23.80;99.90;;;;;;1879955;75;21565;-78
2023/07/17 00:14:20;;;;;;;3.90;1.52;;;23.80;99.90;;;;;;1893430;75;21132;-78
2023/07/17 00:17:12;;;;;;;2.87;1.70;;;23.70;99.90;;;;;;1883132;75;21104;-78
2023/07/17 00:20:06;;;;;;;2.27;1.45;;;23.70;99.90;;;;;;1884571;75;21209;-78
2023/07/17 00:22:58;;;;;;;3.10;1.65;;;23.60;99.90;;;;;;1877791;75;21195;-78
2023/07/17 00:25:49;;;;;;;4.40;1.70;;;23.60;99.90;;;;;;1891309;75;21176;-77
2023/07/17 00:28:41;;;;;;;3.00;1.80;;;23.50;99.90;;;;;;1870490;76;21126;-77
2023/07/17 00:31:32;;;;;;;5.15;1.65;;;23.50;99.90;;;;;;1887606;75;21115;-78
2023/07/17 00:34:25;;;;;;;4.05;1.80;;;23.40;99.90;;;;;;1882882;75;21094;-78
2023/07/17 00:37:16;;;;;;;3.30;1.70;;;23.40;99.90;;;;;;1898872;75;21111;-78
2023/07/17 00:40:11;;;;;;;3.45;1.42;;;23.40;99.90;;;;;;1889966;75;21100;-78
2023/07/17 00:43:03;;;;;;;2.15;1.65;;;23.30;99.90;;;;;;1882557;75;22226;-78
2023/07/17 00:45:54;;;;;;;3.83;1.77;;;23.30;99.90;;;;;;1876692;75;21186;-78
2023/07/17 00:48:46;;;;;;;3.83;1.80;;;23.30;99.90;;;;;;1894655;75;21095;-77
2023/07/17 00:51:39;;;;;;;3.55;1.85;;;23.30;99.90;;;;;;1871116;76;21204;-78
2023/07/17 00:54:31;;;;;;;3.05;1.60;;;23.30;99.90;;;;;;1872495;76;21739;-78
2023/07/17 00:57:26;;;;;;;3.47;1.62;;;23.30;99.90;;;;;;1893350;75;21145;-78
2023/07/17 01:00:22;;;;;;;3.52;1.60;;;23.20;99.90;;;;;;1892989;75;21119;-77
2023/07/17 01:03:14;;;;;;;5.37;1.75;;;23.10;99.90;;;;;;1871771;76;21184;-77
2023/07/17 01:06:06;;;;;;;3.52;1.90;;;23.10;99.90;;;;;;1890151;75;21349;-78
2023/07/17 01:08:58;;;;;;;3.37;1.47;;;23.20;99.90;;;;;;1883875;75;21129;-77
2023/07/17 01:11:50;;;;;;;4.08;1.75;;;23.20;99.90;;;;;;1872225;76;21464;-77
2023/07/17 01:14:41;;;;;;;2.87;1.75;;;23.20;99.90;;;;;;1877991;75;21127;-77
2023/07/17 01:17:33;;;;;;;2.47;1.65;;;23.10;99.90;;;;;;1890901;75;21171;-77
2023/07/17 01:20:25;;;;;;;3.77;1.80;;;23.10;99.90;;;;;;1882242;75;21581;-78
2023/07/17 01:25:59;;;;;;;3.95;1.50;;;23.10;99.90;;;;;;1954708;72;22624;-77
2023/07/17 01:28:50;;;;;;;3.65;1.98;;;23.10;99.90;;;;;;1899041;75;21122;-77
2023/07/17 01:31:42;;;;;;;3.72;1.60;;;23.10;99.90;;;;;;1893672;75;21437;-77
2023/07/17 01:34:32;;;;;;;4.00;1.62;;;23.00;99.90;;;;;;1914811;75;21107;-76
2023/07/17 01:37:23;;;;;;;2.37;1.70;;;22.90;99.90;;;;;;1892879;75;21118;-77
2023/07/17 01:40:16;;;;;;;2.92;1.60;;;22.80;99.90;;;;;;1914206;75;21118;-77
2023/07/17 01:43:07;;;;;;;3.40;1.40;;;22.80;99.90;;;;;;1887660;75;21125;-77
2023/07/17 01:46:00;;;;;;;4.72;1.72;;;22.80;99.90;;;;;;1875857;75;21138;-77
2023/07/17 01:48:51;;;;;;;4.58;1.70;;;22.80;99.90;;;;;;1904608;75;21165;-77
2023/07/17 01:51:42;;;;;;;3.70;1.72;;;22.70;99.90;;;;;;1903117;75;21204;-77
2023/07/17 01:54:34;;;;;;;4.17;2.12;;;22.80;99.90;;;;;;1898069;75;21141;-77
2023/07/17 01:57:25;;;;;;;2.90;1.60;;;22.70;99.90;;;;;;1893546;75;21699;-77
2023/07/17 02:00:17;;;;;;;3.42;1.57;;;22.60;99.90;;;;;;1893553;75;21402;-77
2023/07/17 02:03:09;;;;;;;3.42;1.65;;;22.60;99.90;;;;;;1895156;75;21121;-77
2023/07/17 02:06:01;;;;;;;4.47;1.90;;;22.70;99.90;;;;;;1888716;73;21118;-77
2023/07/17 02:08:53;;;;;;;3.37;1.85;;;22.60;99.90;;;;;;1893942;75;21134;-77
2023/07/17 02:11:45;;;;;;;3.45;1.90;;;22.60;99.90;;;;;;1888818;75;21202;-77
2023/07/17 02:14:36;;;;;;;3.42;1.72;;;22.60;99.90;;;;;;1884210;75;21129;-77
2023/07/17 02:17:28;;;;;;;3.62;1.80;;;22.60;99.90;;;;;;1899620;75;21114;-77
2023/07/17 02:20:20;;;;;;;4.25;1.67;;;22.60;99.90;;;;;;1894835;75;21107;-77
2023/07/17 02:23:11;;;;;;;3.37;1.65;;;22.60;99.90;;;;;;1884654;75;21114;-77
2023/07/17 02:26:04;;;;;;;3.80;1.92;;;22.50;99.90;;;;;;1883461;75;21569;-77
2023/07/17 02:28:55;;;;;;;3.02;1.65;;;22.50;99.90;;;;;;1895567;75;21511;-77
2023/07/17 02:31:46;;;;;;;4.70;1.90;;;22.40;99.90;;;;;;1884424;75;21091;-77
2023/07/17 02:34:38;;;;;;;3.25;1.82;;;22.40;99.90;;;;;;1873910;75;21141;-77
2023/07/17 02:37:29;;;;;;;4.37;1.75;;;22.40;99.90;;;;;;1891887;75;21526;-77
2023/07/17 02:40:20;;;;;;;3.58;1.77;;;22.30;99.90;;;;;;1889366;75;21115;-77
2023/07/17 02:43:12;;;;;;;3.00;1.90;;;22.30;99.90;;;;;;1888629;75;21091;-77
2023/07/17 02:46:04;;;;;;;3.30;1.55;;;22.20;99.90;;;;;;1892090;75;21168;-77
2023/07/17 02:48:58;;;;;;;3.72;2.00;;;22.20;99.90;;;;;;1891686;75;21172;-77
2023/07/17 02:51:51;;;;;;;4.87;1.80;;;22.20;99.90;;;;;;1903259;75;21184;-77
2023/07/17 02:54:43;;;;;;;4.97;1.90;;;22.20;99.90;;;;;;1897248;75;21114;-77
2023/07/17 02:57:36;;;;;;;3.40;1.80;;;22.20;99.90;;;;;;1904118;73;21022;-77
2023/07/17 03:00:27;;;;;;;7.47;1.92;;;22.20;99.90;;;;;;1904282;73;21588;-77
2023/07/17 03:03:21;;;;;;;3.60;1.72;;;22.20;99.90;;;;;;1891371;75;21107;-77
2023/07/17 03:06:12;;;;;;;4.35;1.87;;;22.10;99.90;;;;;;1882240;75;21179;-77
2023/07/17 03:09:04;;;;;;;2.47;1.55;;;22.10;99.90;;;;;;1907992;75;21585;-77
2023/07/17 03:11:55;;;;;;;3.58;1.40;;;22.00;99.90;;;;;;1880922;75;21155;-77
2023/07/17 03:14:46;;;;;;;5.22;1.70;;;22.00;99.90;;;;;;1878333;75;21176;-77
2023/07/17 03:17:38;;;;;;;3.42;1.65;;;21.90;99.90;;;;;;1901510;75;21265;-77
2023/07/17 03:20:30;;;;;;;5.30;2.10;;;21.90;99.90;;;;;;1902509;74;21123;-77
2023/07/17 03:23:21;;;;;;;4.60;2.00;;;21.90;99.90;;;;;;1891081;75;21099;-77
2023/07/17 03:26:12;;;;;;;4.62;1.92;;;22.00;99.90;;;;;;1886821;74;21129;-77
2023/07/17 03:29:04;;;;;;;3.62;1.87;;;22.00;99.90;;;;;;1904556;74;21113;-77
2023/07/17 03:31:58;;;;;;;4.53;1.55;;;22.00;99.90;;;;;;1907811;74;21636;-77
2023/07/17 03:34:53;;;;;;;2.90;1.90;;;22.10;99.90;;;;;;1891967;74;21145;-77
2023/07/17 03:37:46;;;;;;;4.28;2.30;;;22.10;99.90;;;;;;1919406;74;22086;-77
2023/07/17 03:40:42;;;;;;;2.95;1.60;;;22.10;99.90;;;;;;1902436;74;21078;-77
2023/07/17 03:43:34;;;;;;;2.52;1.80;;;22.10;99.90;;;;;;1905555;74;21191;-77
2023/07/17 03:46:31;;;;;;;4.20;1.75;;;22.20;99.90;;;;;;1889462;74;21089;-77
2023/07/17 03:49:27;;;;;;;4.90;2.00;;;22.20;99.90;;;;;;1920730;74;21062;-77
2023/07/17 03:52:20;;;;;;;4.25;1.87;;;22.20;99.90;;;;;;1920510;74;21118;-77
2023/07/17 03:55:17;;;;;;;4.20;1.80;;;22.10;99.90;;;;;;1905204;74;21155;-77
2023/07/17 03:58:10;;;;;;;3.37;1.92;;;22.00;99.90;;;;;;1903616;74;21094;-77
2023/07/17 04:01:04;;;;;;;2.10;1.67;;;22.00;99.90;;;;;;1911975;74;21135;-77
2023/07/17 04:04:02;;;;;;;4.08;1.92;;;21.90;99.90;;;;;;1909414;74;21662;-77
2023/07/17 04:06:59;;;;;;;5.47;2.12;;;21.90;99.90;;;;;;1909828;74;21185;-77
2023/07/17 04:09:53;;;;;;;3.87;2.02;;;21.90;99.90;;;;;;1909353;74;21117;-77
2023/07/17 04:12:52;;;;;;;3.85;2.02;;;22.00;99.90;;;;;;1912308;74;21066;-76
2023/07/17 04:15:46;;;;;;;2.70;1.90;;;22.00;99.90;;;;;;1913978;74;21121;-76
2023/07/17 04:18:41;;;;;;;3.05;2.12;;;22.10;99.90;;;;;;1900472;74;21144;-75
2023/07/17 04:21:36;;;;;;;5.33;1.95;;;22.00;99.90;;;;;;1856346;77;21108;-76
2023/07/17 04:24:30;;;;;;;5.87;2.50;;;21.80;99.90;;;;;;1920602;74;21118;-75
2023/07/17 04:27:24;;;;;;;4.00;2.08;;;21.90;99.90;;;;;;1912010;74;21118;-76
2023/07/17 04:30:17;;;;;;;3.87;2.15;;;21.80;99.90;;;;;;1896363;75;21174;-75
2023/07/17 04:33:12;;;;;;;5.35;2.25;;;21.80;99.90;;;;;;1882537;75;21165;-76
2023/07/17 04:36:11;;;;;;;3.08;2.22;;;21.90;99.90;;;;;;1880838;75;21090;-76
2023/07/17 04:39:07;;;;;;;3.52;2.08;;;21.90;99.90;;;;;;1881203;75;21163;-76
2023/07/17 04:42:00;;;;;;;3.95;2.12;;;21.90;99.90;;;;;;1883334;75;21213;-76
2023/07/17 04:44:53;;;;;;;3.08;2.02;;;22.00;99.90;;;;;;1916176;73;21575;-77
2023/07/17 04:47:52;;;;;;;3.40;1.90;;;22.00;99.90;;;;;;1882661;75;21177;-77
2023/07/17 04:50:48;;;;;;;4.35;2.10;;;21.80;99.90;;;;;;1886107;75;21091;-77
2023/07/17 04:53:42;;;;;;;4.17;2.00;;;21.70;99.90;;;;;;1894179;75;21159;-77
2023/07/17 04:56:37;;;;;;;4.67;2.30;;;21.70;99.90;;;;;;1886064;75;21157;-77
2023/07/17 04:59:32;;;;;;;2.90;1.87;;;21.70;99.90;;;;;;1886695;75;21087;-78
2023/07/17 05:02:27;;;;;;;5.30;1.82;;;21.70;99.90;;;;;;1894378;75;21550;-77
2023/07/17 05:05:20;;;;;;;2.98;2.20;;;21.70;99.90;;;;;;1881128;75;21102;-77
2023/07/17 05:08:17;;;;;;;4.40;2.12;;;21.80;99.90;;;;;;1878999;75;21669;-76
2023/07/17 05:11:11;;;;;;;4.45;2.65;;;21.80;99.90;;;;;;1882790;74;21544;-75
2023/07/17 05:14:05;;;;;;;6.87;2.40;;;21.90;99.90;;;;;;1897306;75;21110;-76
2023/07/17 05:16:59;;;;;;;4.47;2.00;;;21.90;99.90;;;;;;1893198;75;21197;-76
2023/07/17 05:19:56;;;;;;;2.35;2.00;;;21.90;99.90;;;;;;1908549;75;21160;-75
2023/07/17 05:22:51;;;;;;;3.12;2.08;;;21.80;99.90;;;;;;1884881;75;21113;-76
2023/07/17 05:25:50;;;;;;;4.97;2.37;;;21.90;99.90;;;;;;1892340;75;21119;-75
2023/07/17 05:28:44;;;;;;;3.72;1.95;;;21.90;99.90;;;;;;1887294;74;21197;-75
2023/07/17 05:31:38;;;;;;;3.92;1.95;;;22.00;99.90;;;;;;1887039;75;21048;-75
2023/07/17 05:34:31;;;;;;;3.37;2.20;;;22.00;99.90;;;;;;1889804;75;21109;-75
2023/07/17 05:37:23;;;;;;;2.05;1.67;;;22.10;99.90;;;;;;1892347;75;21128;-75
2023/07/17 05:40:17;;;;;;;4.65;2.37;;;22.10;99.90;;;;;;1882555;76;21611;-75
2023/07/17 05:43:10;;;;;;;6.95;2.20;;;22.10;99.90;;;;;;1881191;75;22438;-75
2023/07/17 05:46:04;;;;;;;4.75;1.90;;;22.10;99.90;;;;;;1872593;75;21601;-75
2023/07/17 05:48:58;;;;;;;3.80;1.82;;;22.20;99.90;;;;;;1892230;75;21099;-75
2023/07/17 05:51:52;;;;;;;3.85;2.37;;;22.30;99.90;;;;;;1881907;76;21137;-75
2023/07/17 05:54:47;;;;;;;3.02;2.02;;;22.30;99.90;;;;;;1898886;75;21102;-75
2023/07/17 05:57:49;;;;;;;4.72;2.40;;;22.40;99.90;;;;;;1894761;75;21059;-75
2023/07/17 06:00:42;;;;;;;5.05;2.47;;;22.40;99.90;;;;;;1892854;75;21205;-76
2023/07/17 06:03:34;;;;;;;6.00;2.35;;;22.40;99.90;;;;;;1889878;75;21240;-76
2023/07/17 06:06:28;;;;;;;4.25;2.40;;;22.50;99.90;;;;;;1893720;75;21154;-76
2023/07/17 06:09:22;;;;;;;6.80;2.72;;;22.60;99.90;;;;;;1899016;75;21099;-76
2023/07/17 06:12:15;;;;;;;2.95;2.12;;;22.60;99.90;;;;;;1894387;75;21094;-76
2023/07/17 06:15:18;;;;;;;5.28;2.52;;;22.70;99.90;;;;;;1886281;75;21098;-76
2023/07/17 06:18:11;;;;;;;5.75;2.40;;;22.80;99.90;;;;;;1884069;75;21546;-76
2023/07/17 06:21:07;;;;;;;4.40;2.50;;;22.90;99.90;;;;;;1889054;75;21126;-76
2023/07/17 06:24:02;;;;;;;4.15;2.35;;;23.00;99.90;;;;;;1877434;75;21101;-76
2023/07/17 06:26:54;;;;;;;4.42;2.30;;;23.00;99.90;;;;;;1882826;75;21608;-76
2023/07/17 06:29:49;;;;;;;4.47;2.25;;;23.00;99.90;;;;;;1867115;75;21221;-76
2023/07/17 06:32:41;;;;;;;4.25;2.37;;;23.10;99.90;;;;;;1877644;74;21109;-76
2023/07/17 06:35:36;;;;;;;4.42;2.60;;;23.00;99.90;;;;;;1896951;75;21199;-76
2023/07/17 06:38:32;;;;;;;3.70;2.22;;;23.00;99.90;;;;;;1884834;75;21193;-76
2023/07/17 06:41:27;;;;;;;3.42;2.27;;;23.10;99.90;;;;;;1882383;75;21099;-76
2023/07/17 06:44:21;;;;;;;3.95;2.37;;;23.10;99.90;;;;;;1881143;75;21099;-76
2023/07/17 06:47:14;;;;;;;3.62;2.10;;;23.10;99.90;;;;;;1878125;75;21126;-76
2023/07/17 06:50:15;;;;;;;4.00;2.02;;;23.10;99.90;;;;;;1882423;76;21142;-76
2023/07/17 06:53:10;;;;;;;3.22;2.37;;;23.10;99.90;;;;;;1887965;75;21107;-76
2023/07/17 06:56:04;;;;;;;3.30;2.05;;;23.10;99.90;;;;;;1896079;75;21193;-76
2023/07/17 06:59:02;;;;;;;5.47;2.52;;;23.20;99.90;;;;;;1904212;75;21117;-76
2023/07/17 07:01:55;;;;;;;5.10;2.30;;;23.20;99.90;;;;;;1904243;75;21792;-76
2023/07/17 07:04:49;;;;;;;4.87;2.55;;;23.20;99.90;;;;;;1904744;75;21110;-76
2023/07/17 07:10:23;;;;;;;3.55;2.33;;;23.10;99.90;;;;;;1940831;72;22146;-76
2023/07/17 07:13:14;;;;;;;2.45;1.80;;;23.20;99.90;;;;;;1916892;74;21098;-75
2023/07/17 07:16:07;;;;;;;2.75;1.77;;;23.20;99.90;;;;;;1902364;75;21101;-75
2023/07/17 07:18:59;;;;;;;4.85;2.17;;;23.10;99.90;;;;;;1901661;74;21183;-76
2023/07/17 07:21:50;;;;;;;2.62;2.10;;;23.20;99.90;;;;;;1915020;75;21133;-76
2023/07/17 07:24:42;;;;;;;4.87;1.80;;;23.30;99.90;;;;;;1916732;74;21205;-75
2023/07/17 07:27:34;;;;;;;5.42;2.22;;;23.20;99.90;;;;;;1917880;74;21174;-76
2023/07/17 07:30:25;;;;;;;5.67;2.67;;;23.20;99.90;;;;;;1915929;75;21126;-76
2023/07/17 07:33:16;;;;;;;5.30;2.50;;;23.20;99.90;;;;;;1896247;74;21693;-75
2023/07/17 07:36:25;;;;;;;6.15;2.77;;;23.10;99.90;;;;;;1921405;74;21220;-76
2023/07/17 07:39:18;;;;;;;7.12;2.33;;;23.20;99.90;;;;;;1885974;75;21141;-75
2023/07/17 07:42:10;;;;;;;5.08;2.40;;;23.20;99.90;;;;;;1920043;74;21077;-76
2023/07/17 07:45:01;;;;;;;6.55;2.33;;;23.30;99.90;;;;;;1904432;75;21182;-76
2023/07/17 07:50:35;;;;;;;7.47;2.60;;;23.40;99.90;;;;;;1955177;72;22090;-76
2023/07/17 07:53:26;;;;;;;6.00;2.17;;;23.50;99.90;;;;;;1910719;74;21129;-76
2023/07/17 07:56:17;;;;;;;5.25;2.22;;;23.70;99.90;;;;;;1900867;75;21106;-76
2023/07/17 07:59:09;;;;;;;5.35;2.20;;;23.90;99.90;;;;;;1898466;75;21617;-76
2023/07/17 08:02:01;;;;;;;6.72;2.60;;;24.00;99.90;;;;;;1905533;75;21091;-76
2023/07/17 08:04:53;;;;;;;5.03;2.10;;;24.00;99.90;;;;;;1892959;75;21161;-76
2023/07/17 08:07:44;;;;;;;6.03;2.40;;;24.10;99.90;;;;;;1863277;76;21094;-76
2023/07/17 08:10:38;;;;;;;4.95;2.17;;;24.30;99.90;;;;;;1894150;75;21051;-76
2023/07/17 08:13:29;;;;;;;5.33;2.33;;;24.40;99.90;;;;;;1893934;75;21543;-77
2023/07/17 08:16:21;;;;;;;5.65;2.27;;;24.30;99.90;;;;;;1892941;75;21687;-76
2023/07/17 08:19:13;;;;;;;6.12;2.45;;;24.30;99.90;;;;;;1901438;75;21139;-76
2023/07/17 08:22:05;;;;;;;4.92;1.92;;;24.20;99.90;;;;;;1895719;75;21126;-76
2023/07/17 08:24:56;;;;;;;4.25;2.17;;;24.30;99.90;;;;;;1893918;75;21149;-76
2023/07/17 08:27:48;;;;;;;2.83;1.60;;;24.50;99.90;;;;;;1893568;75;21589;-75
2023/07/17 08:30:41;;;;;;;3.12;1.82;;;24.60;99.90;;;;;;1911932;75;21099;-77
2023/07/17 08:33:33;;;;;;;4.65;1.77;;;24.60;99.90;;;;;;1860495;76;21775;-77
2023/07/17 08:36:26;;;;;;;6.12;1.90;;;24.70;99.90;;;;;;1893236;75;21098;-77
2023/07/17 08:39:17;;;;;;;3.37;1.67;;;24.70;99.90;;;;;;1888361;75;21106;-76
2023/07/17 08:42:09;;;;;;;4.12;1.62;;;24.80;99.90;;;;;;1904355;75;21574;-76
2023/07/17 08:45:01;;;;;;;4.50;1.92;;;24.80;99.90;;;;;;1902118;75;21196;-76
2023/07/17 08:50:33;;;;;;;3.65;2.00;;;25.00;99.90;;;;;;1947447;72;22162;-76
2023/07/17 08:53:25;;;;;;;5.03;2.05;;;25.00;99.90;;;;;;1915679;75;21160;-77
2023/07/17 08:56:18;;;;;;;4.20;2.22;;;24.80;99.90;;;;;;1915709;75;21158;-76
2023/07/17 08:59:10;;;;;;;6.42;2.10;;;24.80;99.90;;;;;;1943166;73;21129;-76
2023/07/17 09:02:03;;;;;;;5.62;2.02;;;24.80;99.90;;;;;;1921297;73;21164;-81
2023/07/17 09:04:55;;;;;;;5.10;1.90;;;24.90;99.90;;;;;;1916338;75;21161;-82
2023/07/17 09:07:47;;;;;;;4.67;2.27;;;24.90;99.90;;;;;;1934002;73;21203;-81
2023/07/17 09:10:41;;;;;;;4.92;2.40;;;24.90;99.90;;;;;;1916122;75;21195;-80
2023/07/17 09:13:39;;;;;;;8.23;2.55;;;24.90;99.90;;;;;;1928944;73;21183;-81
2023/07/17 09:16:30;;;;;;;5.10;2.33;;;24.90;99.90;;;;;;1915580;75;21170;-80
2023/07/17 09:19:26;;;;;;;3.60;2.17;;;24.90;99.90;;;;;;1916211;75;21106;-80
2023/07/17 09:22:17;;;;;;;5.20;1.98;;;24.90;99.90;;;;;;1916097;75;21220;-81
2023/07/17 09:25:10;;;;;;;4.67;2.20;;;25.10;99.90;;;;;;1928208;73;21095;-80
2023/07/17 09:28:02;;;;;;;7.45;2.40;;;25.20;99.90;;;;;;1927263;73;21098;-80
2023/07/17 09:31:03;;;;;;;4.00;2.08;;;25.30;99.90;;;;;;1918354;73;21257;-81
2023/07/17 09:33:55;;;;;;;3.83;1.70;;;25.30;99.90;;;;;;1927668;73;21091;-80
2023/07/17 09:36:55;;;;;;;5.12;2.00;;;25.40;99.90;;;;;;1932755;73;21101;-80
2023/07/17 09:39:48;;;;;;;4.53;2.10;;;25.40;99.90;;;;;;1917494;73;21063;-80
2023/07/17 09:42:40;;;;;;;3.83;2.00;;;25.40;99.90;;;;;;1923239;73;22293;-80
2023/07/17 09:45:32;;;;;;;6.67;2.20;;;25.50;99.90;;;;;;1916096;73;21180;-80
2023/07/17 09:48:26;;;;;;;3.52;1.95;;;25.70;99.90;;;;;;1915163;75;21126;-80
2023/07/17 09:51:19;;;;;;;4.40;1.90;;;25.50;99.90;;;;;;1904577;75;21110;-80
2023/07/17 09:54:12;;;;;;;3.67;1.90;;;25.60;99.90;;;;;;1913149;74;21137;-81
2023/07/17 09:57:05;;;;;;;4.97;2.25;;;25.70;99.90;;;;;;1919546;73;21453;-80
2023/07/17 10:00:00;;;;;;;6.72;2.65;;;25.70;99.90;;;;;;1903571;75;21082;-80
2023/07/17 10:02:59;;;;;;;4.55;2.30;;;25.80;99.90;;;;;;1920580;73;21122;-82
2023/07/17 10:05:51;;;;;;;3.50;2.10;;;26.00;99.90;;;;;;1902957;75;21177;-81
2023/07/17 10:08:46;;;;;;;5.35;2.10;;;26.00;99.90;;;;;;1911613;74;21135;-81
2023/07/17 10:11:38;;;;;;;7.00;2.27;;;26.00;99.90;;;;;;1921948;73;21114;-80
2023/07/17 10:14:30;;;;;;;4.12;2.20;;;26.10;99.90;;;;;;1915651;75;21196;-82
2023/07/17 10:17:31;;;;;;;3.83;2.17;;;26.10;99.90;;;;;;1902669;75;21209;-82
2023/07/17 10:20:24;;;;;;;7.35;2.45;;;26.00;99.90;;;;;;1902647;75;21079;-82
2023/07/17 10:23:25;;;;;;;6.00;2.60;;;26.10;99.90;;;;;;1915347;75;21545;-82
2023/07/17 10:26:17;;;;;;;5.28;2.20;;;26.20;99.90;;;;;;1902942;75;21121;-82
2023/07/17 10:29:08;;;;;;;5.30;2.40;;;26.30;99.90;;;;;;1936811;73;21169;-82
2023/07/17 10:32:03;;;;;;;4.92;2.33;;;26.50;99.90;;;;;;1920810;74;21176;-81
2023/07/17 10:34:54;;;;;;;4.62;2.27;;;26.60;99.90;;;;;;1915403;74;21147;-81
2023/07/17 10:37:46;;;;;;;3.80;2.17;;;26.70;99.90;;;;;;1924953;73;21193;-81
2023/07/17 10:40:38;;;;;;;5.03;2.70;;;26.50;99.90;;;;;;1924768;73;21102;-81
2023/07/17 10:43:29;;;;;;;5.03;2.50;;;26.50;99.90;;;;;;1919069;74;21189;-82
2023/07/17 10:46:22;;;;;;;3.65;2.40;;;26.60;99.90;;;;;;1903078;75;21056;-82
2023/07/17 10:49:15;;;;;;;4.50;2.40;;;26.60;99.90;;;;;;1903186;75;21110;-82
2023/07/17 10:52:09;;;;;;;4.92;2.00;;;26.70;99.90;;;;;;1942998;73;21185;-82
2023/07/17 10:55:04;;;;;;;4.80;2.17;;;26.70;99.90;;;;;;1924736;74;21118;-82
2023/07/17 10:57:57;;;;;;;5.53;2.60;;;26.80;99.90;;;;;;1924816;74;21164;-82
2023/07/17 11:00:49;;;;;;;5.37;2.45;;;26.80;99.90;;;;;;1924415;74;21344;-81
2023/07/17 11:06:26;;;;;;;5.10;2.30;;;27.00;99.90;;;;;;1931865;72;22700;-82
2023/07/17 11:09:18;;;;;;;4.70;1.92;;;27.20;99.90;;;;;;1897479;75;21164;-82
2023/07/17 11:12:10;;;;;;;4.47;2.20;;;27.30;99.90;;;;;;1895555;75;21095;-77
2023/07/17 11:15:02;;;;;;;2.62;2.00;;;27.40;99.90;;;;;;1886063;75;21131;-76
2023/07/17 11:17:53;;;;;;;3.95;2.27;;;27.50;99.90;;;;;;1904670;75;21141;-77
2023/07/17 11:20:44;;;;;;;3.90;2.33;;;27.40;99.90;;;;;;1883083;76;21372;-77
2023/07/17 11:23:36;;;;;;;2.95;2.22;;;27.40;99.90;;;;;;1897096;75;21180;-77
2023/07/17 11:26:28;;;;;;;2.55;2.10;;;27.40;99.90;;;;;;1893927;75;21167;-77
2023/07/17 11:29:20;;;;;;;3.92;2.35;;;27.40;99.90;;;;;;1912759;75;21122;-77
2023/07/17 11:32:13;;;;;;;4.47;2.40;;;27.40;99.90;;;;;;1883250;76;21140;-77
2023/07/17 11:35:05;;;;;;;3.10;2.17;;;27.50;99.90;;;;;;1903749;74;21118;-77
2023/07/17 11:37:58;;;;;;;3.80;2.20;;;27.70;99.90;;;;;;1891748;75;21176;-77
2023/07/17 11:40:54;;;;;;;4.42;2.30;;;27.80;99.90;;;;;;1911805;75;21647;-76
2023/07/17 11:43:57;;;;;;;6.22;2.58;;;27.90;99.90;;;;;;1892259;75;21182;-76
2023/07/17 11:46:48;;;;;;;2.95;2.35;;;28.00;99.90;;;;;;1898875;75;21237;-76
2023/07/17 11:49:42;;;;;;;5.80;2.70;;;28.00;99.90;;;;;;1897181;75;21179;-76
2023/07/17 11:52:33;;;;;;;4.97;2.45;;;27.90;99.90;;;;;;1893829;75;21111;-77
2023/07/17 11:55:27;;;;;;;3.95;2.40;;;28.00;99.90;;;;;;1893533;75;21533;-77
2023/07/17 11:58:20;;;;;;;4.80;2.37;;;28.10;99.90;;;;;;1894848;75;21219;-76
2023/07/17 12:01:11;;;;;;;4.35;2.58;;;28.20;99.90;;;;;;1899757;75;21145;-76
2023/07/17 12:04:18;;;;;;;4.05;2.62;;;28.40;99.90;;;;;;1894227;75;21121;-76
2023/07/17 12:07:18;;;;;;;6.70;3.00;;;28.30;99.90;;;;;;1893676;75;21225;-76
2023/07/17 12:10:11;;;;;;;2.98;2.10;;;28.20;99.90;;;;;;1909447;75;21689;-77
2023/07/17 12:13:04;;;;;;;4.60;2.40;;;28.40;99.90;;;;;;1904933;75;21164;-76
2023/07/17 12:15:55;;;;;;;5.17;2.77;;;28.40;99.90;;;;;;1900865;75;21127;-76
2023/07/17 12:18:47;;;;;;;6.53;3.27;;;28.40;99.90;;;;;;1919113;74;21039;-78
2023/07/17 12:21:38;;;;;;;4.53;2.65;;;28.40;99.90;;;;;;1893220;75;21602;-77
2023/07/17 12:24:32;;;;;;;3.72;2.50;;;28.50;99.90;;;;;;1892908;75;21126;-77
2023/07/17 12:27:23;;;;;;;4.45;2.77;;;28.60;99.90;;;;;;1905150;75;21102;-77
2023/07/17 12:30:19;;;;;;;5.17;2.83;;;28.60;99.90;;;;;;1904539;74;21178;-77
2023/07/17 12:33:10;;;;;;;4.85;2.70;;;28.60;99.90;;;;;;1892299;75;21155;-77
2023/07/17 12:36:01;;;;;;;3.00;2.55;;;28.60;99.90;;;;;;1870709;77;21127;-77
2023/07/17 12:38:53;;;;;;;5.53;3.00;;;28.60;99.90;;;;;;1891637;75;21096;-77
2023/07/17 12:41:45;;;;;;;3.87;2.50;;;28.70;99.90;;;;;;1887740;75;21446;-77
2023/07/17 12:44:36;;;;;;;4.45;2.80;;;28.90;99.90;;;;;;1892467;75;21197;-77
2023/07/17 12:47:28;;;;;;;6.20;3.10;;;28.90;99.90;;;;;;1892583;75;21204;-79
2023/07/17 12:50:20;;;;;;;4.90;2.98;;;29.00;99.90;;;;;;1890870;75;21128;-77
2023/07/17 12:53:11;;;;;;;3.25;2.60;;;29.00;99.90;;;;;;1899161;75;21151;-77
2023/07/17 12:56:02;;;;;;;3.85;2.98;;;29.10;99.90;;;;;;1893616;75;21051;-77
2023/07/17 12:58:55;;;;;;;4.97;2.35;;;29.20;99.90;;;;;;1904095;75;21325;-77
2023/07/17 13:01:47;;;;;;;4.28;2.55;;;29.20;99.90;;;;;;1904244;75;21052;-77
2023/07/17 13:04:38;;;;;;;6.03;3.20;;;29.20;99.90;;;;;;1882381;76;21121;-77
2023/07/17 13:07:30;;;;;;;6.10;2.95;;;29.20;99.90;;;;;;1888400;75;21206;-77
2023/07/17 13:10:21;;;;;;;3.83;2.77;;;29.20;99.90;;;;;;1903975;75;21066;-77
2023/07/17 13:13:13;;;;;;;4.42;2.75;;;29.20;99.90;;;;;;1883887;75;21553;-78
2023/07/17 13:16:06;;;;;;;3.85;2.83;;;29.30;99.90;;;;;;1895343;75;21147;-77
2023/07/17 13:18:57;;;;;;;7.60;2.98;;;29.30;99.90;;;;;;1882433;75;21087;-77
2023/07/17 13:21:49;;;;;;;3.33;2.35;;;29.30;99.90;;;;;;1882424;75;21166;-77
2023/07/17 13:24:40;;;;;;;4.75;2.90;;;29.30;99.90;;;;;;1904599;75;21119;-76
2023/07/17 13:27:34;;;;;;;4.45;2.80;;;29.40;99.90;;;;;;1902294;75;21154;-77
2023/07/17 13:30:26;;;;;;;5.33;3.25;;;29.50;99.90;;;;;;1897806;75;21195;-77
2023/07/17 13:33:19;;;;;;;3.80;3.00;;;29.60;99.90;;;;;;1893288;75;21126;-77
2023/07/17 13:36:10;;;;;;;3.92;2.62;;;29.60;99.90;;;;;;1893620;75;21196;-77
2023/07/17 13:39:02;;;;;;;8.15;3.00;;;29.60;99.90;;;;;;1892880;75;21136;-77
2023/07/17 13:41:54;;;;;;;3.83;2.72;;;29.70;99.90;;;;;;1897377;75;21168;-77
2023/07/17 13:44:45;;;;;;;3.52;2.70;;;29.80;99.90;;;;;;1895267;75;21107;-76
2023/07/17 13:47:37;;;;;;;5.12;2.67;;;30.00;99.90;;;;;;1907709;75;21098;-76
2023/07/17 13:50:28;;;;;;;6.17;2.90;;;30.00;99.90;;;;;;1883607;75;21118;-76
2023/07/17 13:53:20;;;;;;;5.17;2.90;;;30.10;99.90;;;;;;1896689;75;21147;-77
2023/07/17 13:56:11;;;;;;;3.52;2.62;;;30.20;99.90;;;;;;1894700;75;21186;-77
2023/07/17 13:59:07;;;;;;;4.28;2.70;;;30.40;99.90;;;;;;1884603;75;21169;-77
2023/07/17 14:02:01;;;;;;;6.10;3.40;;;30.60;99.90;;;;;;1885774;75;21126;-77
2023/07/17 14:04:53;;;;;;;5.53;3.22;;;30.70;99.90;;;;;;1893913;75;21568;-77
2023/07/17 14:07:44;;;;;;;6.70;3.30;;;31.00;99.90;;;;;;1893715;75;21185;-77
2023/07/17 14:10:35;;;;;;;4.15;3.02;;;31.20;99.90;;;;;;1870466;75;21114;-77
2023/07/17 14:16:09;;;;;;;3.72;2.80;;;31.50;99.90;;;;;;1956438;72;22342;-77
2023/07/17 14:19:00;;;;;;;4.05;2.95;;;31.50;99.90;;;;;;1896742;75;21142;-77
2023/07/17 14:21:52;;;;;;;5.60;3.25;;;31.40;99.90;;;;;;1885373;75;21123;-77
2023/07/17 14:24:43;;;;;;;6.42;3.27;;;31.60;99.90;;;;;;1907775;75;21192;-77
2023/07/17 14:27:35;;;;;;;7.20;3.45;;;31.70;99.90;;;;;;1895925;75;21251;-77
2023/07/17 14:30:26;;;;;;;4.12;3.50;;;31.80;99.90;;;;;;1897378;75;21530;-77
2023/07/17 14:33:18;;;;;;;6.60;3.55;;;31.90;99.90;;;;;;1892553;75;21188;-82
2023/07/17 14:36:11;;;;;;;5.78;3.17;;;31.80;99.90;;;;;;1889464;75;21103;-82
2023/07/17 14:39:04;;;;;;;5.25;3.10;;;31.90;99.90;;;;;;1893537;75;21141;-81
2023/07/17 14:41:56;;;;;;;5.75;3.15;;;32.00;99.90;;;;;;1915498;75;21205;-81
2023/07/17 14:44:48;;;;;;;3.98;3.08;;;32.20;99.90;;;;;;1880976;75;21155;-82
2023/07/17 14:47:39;;;;;;;7.95;3.70;;;32.30;99.90;;;;;;1905013;75;21224;-83
2023/07/17 14:50:31;;;;;;;4.00;3.25;;;32.60;99.90;;;;;;1907722;75;21090;-81
2023/07/17 14:53:22;;;;;;;4.20;3.00;;;32.40;99.90;;;;;;1896548;75;21640;-82
2023/07/17 14:56:13;;;;;;;4.60;3.08;;;32.50;99.90;;;;;;1888631;75;21101;-82
2023/07/17 14:59:05;;;;;;;4.28;3.37;;;32.60;99.90;;;;;;1883294;76;21093;-82
2023/07/17 15:01:57;;;;;;;3.75;3.00;;;33.00;99.90;;;;;;1905115;75;21125;-82
2023/07/17 15:04:50;;;;;;;5.33;2.90;;;32.70;99.90;;;;;;1904398;75;21164;-80
2023/07/17 15:07:42;;;;;;;5.17;3.52;;;32.70;99.90;;;;;;1899156;75;21184;-81
2023/07/17 15:10:34;;;;;;;6.15;3.45;;;32.60;99.90;;;;;;1905578;75;21090;-82
2023/07/17 15:13:25;;;;;;;4.62;3.10;;;32.80;99.90;;;;;;1905335;75;21207;-81
2023/07/17 15:16:18;;;;;;;3.70;3.10;;;33.30;99.90;;;;;;1905228;75;21103;-81